EIN1B EGPD-EIDL
Flight info
| Callsign | EIN1B |
|---|---|
| Flight time | 0h 49m |
| Altitude | 32000 |
| Route | TRN DCT MAC DCT RUBEX |
| Aircraft | A320/M-SDE3FGHIRWY/LB1 |
Departure
| Time | 2026-04-22 08:23 |
|---|---|
| Airport | Aberdeen International Airport (EGPD) |
Arrival
| Time | 2026-04-22 09:12 |
|---|---|
| Airport | Donegal Airport (EIDL) |
| Time | Latitude | Longitude | Altitude | Speed | Heading |
|---|---|---|---|---|---|
| 2026-04-22 07:57 | 57.20168 | -2.20321 | 247 ft | 0 kts | 248° |
| 2026-04-22 08:15 | 57.20168 | -2.20320 | 247 ft | 1 kts | 248° |
| 2026-04-22 08:15 | 57.20176 | -2.20281 | 247 ft | 4 kts | 248° |
| 2026-04-22 08:15 | 57.20184 | -2.20245 | 247 ft | 4 kts | 234° |
| 2026-04-22 08:16 | 57.20201 | -2.20224 | 247 ft | 4 kts | 163° |
| 2026-04-22 08:16 | 57.20214 | -2.20233 | 247 ft | 0 kts | 158° |
| 2026-04-22 08:18 | 57.20175 | -2.20204 | 247 ft | 9 kts | 158° |
| 2026-04-22 08:19 | 57.20142 | -2.20180 | 247 ft | 0 kts | 158° |
| 2026-04-22 08:20 | 57.20122 | -2.20165 | 247 ft | 6 kts | 158° |
| 2026-04-22 08:20 | 57.20061 | -2.20120 | 247 ft | 12 kts | 158° |
| 2026-04-22 08:20 | 57.19975 | -2.20047 | 247 ft | 15 kts | 144° |
| 2026-04-22 08:20 | 57.19887 | -2.19897 | 247 ft | 19 kts | 136° |
| 2026-04-22 08:21 | 57.19762 | -2.19783 | 247 ft | 22 kts | 158° |
| 2026-04-22 08:21 | 57.19614 | -2.19662 | 247 ft | 25 kts | 143° |
| 2026-04-22 08:21 | 57.19504 | -2.19489 | 247 ft | 19 kts | 140° |
| 2026-04-22 08:21 | 57.19427 | -2.19319 | 247 ft | 17 kts | 89° |
| 2026-04-22 08:22 | 57.19497 | -2.19265 | 247 ft | 0 kts | 339° |
| 2026-04-22 08:22 | 57.19547 | -2.19302 | 247 ft | 33 kts | 337° |
| 2026-04-22 08:22 | 57.20025 | -2.19650 | 251 ft | 111 kts | 339° |
| 2026-04-22 08:22 | 57.20891 | -2.20314 | 529 ft | 142 kts | 337° |
| 2026-04-22 08:23 | 57.21792 | -2.21025 | 1303 ft | 140 kts | 341° |
| 2026-04-22 08:23 | 57.22624 | -2.22079 | 1890 ft | 158 kts | 309° |
| 2026-04-22 08:23 | 57.22951 | -2.24151 | 2213 ft | 186 kts | 267° |
| 2026-04-22 08:23 | 57.22373 | -2.26410 | 2523 ft | 209 kts | 225° |
| 2026-04-22 08:24 | 57.21245 | -2.28323 | 2855 ft | 231 kts | 221° |
| 2026-04-22 08:24 | 57.19974 | -2.30397 | 3277 ft | 256 kts | 220° |
| 2026-04-22 08:24 | 57.18604 | -2.32627 | 4036 ft | 267 kts | 221° |
| 2026-04-22 08:24 | 57.17206 | -2.34914 | 4993 ft | 270 kts | 220° |
| 2026-04-22 08:25 | 57.15800 | -2.37229 | 5960 ft | 272 kts | 220° |
| 2026-04-22 08:25 | 57.14383 | -2.39567 | 6897 ft | 275 kts | 220° |
| 2026-04-22 08:25 | 57.12952 | -2.41928 | 7763 ft | 278 kts | 220° |
| 2026-04-22 08:25 | 57.11508 | -2.44317 | 8650 ft | 281 kts | 220° |
| 2026-04-22 08:26 | 57.10045 | -2.46740 | 9548 ft | 284 kts | 220° |
| 2026-04-22 08:26 | 57.08564 | -2.49181 | 10446 ft | 287 kts | 220° |
| 2026-04-22 08:26 | 57.07048 | -2.51674 | 11009 ft | 302 kts | 219° |
| 2026-04-22 08:26 | 57.05420 | -2.54346 | 11273 ft | 325 kts | 219° |
| 2026-04-22 08:27 | 57.03676 | -2.57210 | 11561 ft | 345 kts | 220° |
| 2026-04-22 08:27 | 57.01890 | -2.60143 | 12210 ft | 351 kts | 220° |
| 2026-04-22 08:27 | 57.00057 | -2.63149 | 12981 ft | 354 kts | 220° |
| 2026-04-22 08:27 | 56.98210 | -2.66174 | 13765 ft | 357 kts | 220° |
| 2026-04-22 08:28 | 56.96327 | -2.69257 | 14524 ft | 360 kts | 220° |
| 2026-04-22 08:28 | 56.94452 | -2.72320 | 15198 ft | 363 kts | 220° |
| 2026-04-22 08:28 | 56.92583 | -2.75364 | 15861 ft | 366 kts | 220° |
| 2026-04-22 08:28 | 56.90673 | -2.78474 | 16522 ft | 369 kts | 220° |
| 2026-04-22 08:29 | 56.88646 | -2.81378 | 17170 ft | 371 kts | 214° |
| 2026-04-22 08:29 | 56.86545 | -2.84150 | 17811 ft | 374 kts | 214° |
| 2026-04-22 08:29 | 56.84418 | -2.86944 | 18457 ft | 377 kts | 214° |
| 2026-04-22 08:29 | 56.82278 | -2.89753 | 19054 ft | 380 kts | 214° |
| 2026-04-22 08:30 | 56.80121 | -2.92582 | 19598 ft | 383 kts | 213° |
| 2026-04-22 08:30 | 56.77950 | -2.95425 | 20160 ft | 385 kts | 213° |
| 2026-04-22 08:30 | 56.75762 | -2.98284 | 20693 ft | 388 kts | 213° |
| 2026-04-22 08:30 | 56.73559 | -3.01156 | 21195 ft | 391 kts | 213° |
| 2026-04-22 08:31 | 56.71338 | -3.04048 | 21708 ft | 394 kts | 213° |
| 2026-04-22 08:31 | 56.69101 | -3.06964 | 22203 ft | 397 kts | 213° |
| 2026-04-22 08:31 | 56.64575 | -3.12848 | 23195 ft | 402 kts | 213° |
| 2026-04-22 08:32 | 56.62289 | -3.15811 | 23672 ft | 405 kts | 213° |
| 2026-04-22 08:32 | 56.59981 | -3.18790 | 24142 ft | 408 kts | 213° |
| 2026-04-22 08:32 | 56.57659 | -3.21785 | 24535 ft | 411 kts | 213° |
| 2026-04-22 08:32 | 56.55322 | -3.24800 | 24936 ft | 414 kts | 213° |
| 2026-04-22 08:33 | 56.52970 | -3.27833 | 25320 ft | 416 kts | 213° |
| 2026-04-22 08:33 | 56.50606 | -3.30877 | 25714 ft | 418 kts | 213° |
| 2026-04-22 08:33 | 56.48229 | -3.33931 | 26112 ft | 420 kts | 214° |
| 2026-04-22 08:33 | 56.45836 | -3.37005 | 26480 ft | 423 kts | 213° |
| 2026-04-22 08:34 | 56.43427 | -3.40091 | 26853 ft | 425 kts | 213° |
| 2026-04-22 08:34 | 56.40998 | -3.43191 | 27226 ft | 428 kts | 213° |
| 2026-04-22 08:34 | 56.38563 | -3.46292 | 27586 ft | 430 kts | 214° |
| 2026-04-22 08:34 | 56.36106 | -3.49416 | 27939 ft | 432 kts | 214° |
| 2026-04-22 08:35 | 56.33645 | -3.52547 | 28269 ft | 435 kts | 214° |
| 2026-04-22 08:35 | 56.31195 | -3.55656 | 28576 ft | 437 kts | 214° |
| 2026-04-22 08:35 | 56.28702 | -3.58819 | 28935 ft | 438 kts | 214° |
| 2026-04-22 08:35 | 56.26168 | -3.62031 | 29229 ft | 442 kts | 214° |
| 2026-04-22 08:36 | 56.23679 | -3.65184 | 29492 ft | 444 kts | 216° |
| 2026-04-22 08:36 | 56.21149 | -3.68384 | 29807 ft | 446 kts | 216° |
| 2026-04-22 08:36 | 56.18607 | -3.71588 | 30179 ft | 447 kts | 216° |
| 2026-04-22 08:36 | 56.16061 | -3.74791 | 30603 ft | 446 kts | 216° |
| 2026-04-22 08:37 | 56.13517 | -3.77980 | 30998 ft | 445 kts | 216° |
| 2026-04-22 08:37 | 56.10981 | -3.81150 | 31312 ft | 445 kts | 216° |
| 2026-04-22 08:37 | 56.08441 | -3.84319 | 31673 ft | 444 kts | 216° |
| 2026-04-22 08:37 | 56.05907 | -3.87481 | 32011 ft | 444 kts | 216° |
| 2026-04-22 08:38 | 56.03376 | -3.90642 | 32321 ft | 444 kts | 216° |
| 2026-04-22 08:38 | 56.00840 | -3.93806 | 32511 ft | 444 kts | 216° |
| 2026-04-22 08:38 | 55.98304 | -3.96959 | 32547 ft | 445 kts | 216° |
| 2026-04-22 08:39 | 55.93236 | -4.03240 | 32545 ft | 443 kts | 218° |
| 2026-04-22 08:39 | 55.88171 | -4.09497 | 32542 ft | 442 kts | 217° |
| 2026-04-22 08:40 | 55.83107 | -4.15736 | 32541 ft | 443 kts | 217° |
| 2026-04-22 08:40 | 55.78040 | -4.21966 | 32542 ft | 443 kts | 216° |
| 2026-04-22 08:41 | 55.72968 | -4.28183 | 32542 ft | 443 kts | 217° |
| 2026-04-22 08:41 | 55.67894 | -4.34374 | 32521 ft | 442 kts | 217° |
| 2026-04-22 08:42 | 55.62820 | -4.40524 | 32524 ft | 442 kts | 217° |
| 2026-04-22 08:42 | 55.57746 | -4.46649 | 32506 ft | 441 kts | 218° |
| 2026-04-22 08:43 | 55.52684 | -4.52767 | 32519 ft | 440 kts | 218° |
| 2026-04-22 08:43 | 55.47634 | -4.58873 | 32525 ft | 439 kts | 218° |
| 2026-04-22 08:44 | 55.42586 | -4.64946 | 32505 ft | 439 kts | 218° |
| 2026-04-22 08:44 | 55.37637 | -4.71154 | 32499 ft | 433 kts | 227° |
| 2026-04-22 08:44 | 55.35654 | -4.75067 | 32491 ft | 426 kts | 239° |
| 2026-04-22 08:45 | 55.34228 | -4.79580 | 32489 ft | 420 kts | 251° |
| 2026-04-22 08:45 | 55.33405 | -4.84471 | 32493 ft | 416 kts | 262° |
| 2026-04-22 08:45 | 55.33188 | -4.89454 | 32479 ft | 414 kts | 273° |
| 2026-04-22 08:46 | 55.34238 | -4.99362 | 32463 ft | 413 kts | 283° |
| 2026-04-22 08:46 | 55.35577 | -5.09195 | 32473 ft | 414 kts | 283° |
| 2026-04-22 08:47 | 55.36905 | -5.19044 | 32491 ft | 414 kts | 283° |
| 2026-04-22 08:47 | 55.38228 | -5.28902 | 32485 ft | 414 kts | 283° |
| 2026-04-22 08:48 | 55.39541 | -5.38775 | 32485 ft | 414 kts | 283° |
| 2026-04-22 08:48 | 55.40850 | -5.48650 | 32504 ft | 414 kts | 283° |
| 2026-04-22 08:49 | 55.42149 | -5.58554 | 32130 ft | 417 kts | 283° |
| 2026-04-22 08:49 | 55.42646 | -5.63547 | 31617 ft | 413 kts | 275° |
| 2026-04-22 08:49 | 55.42678 | -5.68597 | 31120 ft | 412 kts | 266° |
| 2026-04-22 08:49 | 55.42311 | -5.73598 | 30627 ft | 412 kts | 263° |
| 2026-04-22 08:50 | 55.41901 | -5.78584 | 30064 ft | 412 kts | 263° |
| 2026-04-22 08:50 | 55.41493 | -5.83587 | 29495 ft | 414 kts | 263° |
| 2026-04-22 08:50 | 55.41084 | -5.88620 | 28938 ft | 417 kts | 263° |
| 2026-04-22 08:50 | 55.40677 | -5.93603 | 28399 ft | 416 kts | 263° |
| 2026-04-22 08:51 | 55.40263 | -5.98636 | 27864 ft | 415 kts | 263° |
| 2026-04-22 08:51 | 55.39849 | -6.03656 | 27337 ft | 414 kts | 263° |
| 2026-04-22 08:51 | 55.39434 | -6.08653 | 26822 ft | 412 kts | 263° |
| 2026-04-22 08:51 | 55.39016 | -6.13635 | 26314 ft | 411 kts | 262° |
| 2026-04-22 08:52 | 55.38593 | -6.18600 | 25819 ft | 410 kts | 262° |
| 2026-04-22 08:52 | 55.38169 | -6.23543 | 25320 ft | 408 kts | 262° |
| 2026-04-22 08:52 | 55.37746 | -6.28474 | 24844 ft | 407 kts | 262° |
| 2026-04-22 08:52 | 55.37326 | -6.33396 | 24370 ft | 405 kts | 262° |
| 2026-04-22 08:53 | 55.36907 | -6.38286 | 23873 ft | 404 kts | 262° |
| 2026-04-22 08:53 | 55.36487 | -6.43155 | 23303 ft | 401 kts | 262° |
| 2026-04-22 08:53 | 55.36066 | -6.48010 | 22753 ft | 400 kts | 261° |
| 2026-04-22 08:53 | 55.35646 | -6.52821 | 22214 ft | 397 kts | 261° |
| 2026-04-22 08:54 | 55.35228 | -6.57589 | 21683 ft | 393 kts | 261° |
| 2026-04-22 08:54 | 55.34808 | -6.62336 | 21161 ft | 393 kts | 261° |
| 2026-04-22 08:54 | 55.34386 | -6.67090 | 20652 ft | 394 kts | 261° |
| 2026-04-22 08:54 | 55.33962 | -6.71841 | 20150 ft | 393 kts | 260° |
| 2026-04-22 08:55 | 55.33538 | -6.76577 | 19651 ft | 392 kts | 259° |
| 2026-04-22 08:55 | 55.33109 | -6.81321 | 19164 ft | 394 kts | 259° |
| 2026-04-22 08:55 | 55.32679 | -6.86083 | 18680 ft | 395 kts | 259° |
| 2026-04-22 08:55 | 55.32175 | -6.90811 | 18120 ft | 393 kts | 254° |
| 2026-04-22 08:56 | 55.31277 | -6.95301 | 17580 ft | 388 kts | 242° |
| 2026-04-22 08:56 | 55.29998 | -6.99428 | 17049 ft | 384 kts | 236° |
| 2026-04-22 08:56 | 55.28622 | -7.03431 | 16527 ft | 381 kts | 235° |
| 2026-04-22 08:56 | 55.27261 | -7.07397 | 16000 ft | 378 kts | 235° |
| 2026-04-22 08:57 | 55.25911 | -7.11331 | 15513 ft | 375 kts | 236° |
| 2026-04-22 08:57 | 55.24569 | -7.15235 | 15004 ft | 373 kts | 236° |
| 2026-04-22 08:57 | 55.23249 | -7.19065 | 14529 ft | 371 kts | 235° |
| 2026-04-22 08:57 | 55.21918 | -7.22919 | 14020 ft | 369 kts | 235° |
| 2026-04-22 08:58 | 55.20594 | -7.26747 | 13468 ft | 367 kts | 236° |
| 2026-04-22 08:58 | 55.19278 | -7.30556 | 12952 ft | 364 kts | 235° |
| 2026-04-22 08:58 | 55.17971 | -7.34337 | 12420 ft | 362 kts | 236° |
| 2026-04-22 08:58 | 55.16670 | -7.38091 | 11911 ft | 359 kts | 235° |
| 2026-04-22 08:59 | 55.15379 | -7.41809 | 11404 ft | 356 kts | 236° |
| 2026-04-22 08:59 | 55.14099 | -7.45493 | 10904 ft | 353 kts | 236° |
| 2026-04-22 08:59 | 55.12829 | -7.49136 | 10514 ft | 347 kts | 234° |
| 2026-04-22 08:59 | 55.11599 | -7.52661 | 10416 ft | 331 kts | 236° |
| 2026-04-22 09:00 | 55.10432 | -7.56008 | 10435 ft | 314 kts | 236° |
| 2026-04-22 09:00 | 55.09319 | -7.59196 | 10432 ft | 301 kts | 234° |
| 2026-04-22 09:00 | 55.08227 | -7.62311 | 10282 ft | 301 kts | 234° |
| 2026-04-22 09:00 | 55.07139 | -7.65398 | 9950 ft | 297 kts | 233° |
| 2026-04-22 09:01 | 55.06066 | -7.68447 | 9640 ft | 293 kts | 235° |
| 2026-04-22 09:01 | 55.05005 | -7.71460 | 9331 ft | 289 kts | 234° |
| 2026-04-22 09:01 | 55.04309 | -7.73433 | 9105 ft | 287 kts | 235° |
| 2026-04-22 09:01 | 55.03267 | -7.76384 | 8789 ft | 284 kts | 234° |
| 2026-04-22 09:02 | 55.02232 | -7.79312 | 8479 ft | 283 kts | 234° |
| 2026-04-22 09:02 | 55.01201 | -7.82221 | 8178 ft | 281 kts | 234° |
| 2026-04-22 09:02 | 55.00178 | -7.85108 | 7871 ft | 280 kts | 234° |
| 2026-04-22 09:02 | 54.99158 | -7.87988 | 7561 ft | 279 kts | 234° |
| 2026-04-22 09:03 | 54.98142 | -7.90855 | 7263 ft | 278 kts | 234° |
| 2026-04-22 09:03 | 54.97126 | -7.93713 | 6957 ft | 277 kts | 233° |
| 2026-04-22 09:03 | 54.96125 | -7.96528 | 6663 ft | 270 kts | 233° |
| 2026-04-22 09:03 | 54.95148 | -7.99279 | 6429 ft | 265 kts | 233° |
| 2026-04-22 09:04 | 54.94187 | -8.01984 | 6194 ft | 259 kts | 233° |
| 2026-04-22 09:04 | 54.93248 | -8.04618 | 5947 ft | 255 kts | 233° |
| 2026-04-22 09:04 | 54.92318 | -8.07220 | 5724 ft | 252 kts | 233° |
| 2026-04-22 09:04 | 54.91396 | -8.09796 | 5484 ft | 250 kts | 233° |
| 2026-04-22 09:05 | 54.90476 | -8.12366 | 5260 ft | 250 kts | 233° |
| 2026-04-22 09:05 | 54.89559 | -8.14921 | 5024 ft | 249 kts | 233° |
| 2026-04-22 09:05 | 54.88647 | -8.17461 | 4778 ft | 247 kts | 232° |
| 2026-04-22 09:05 | 54.87737 | -8.19983 | 4560 ft | 246 kts | 232° |
| 2026-04-22 09:06 | 54.86831 | -8.22496 | 4329 ft | 246 kts | 232° |
| 2026-04-22 09:06 | 54.85925 | -8.25012 | 4099 ft | 245 kts | 232° |
| 2026-04-22 09:06 | 54.85026 | -8.27506 | 3863 ft | 242 kts | 232° |
| 2026-04-22 09:06 | 54.84216 | -8.30057 | 3603 ft | 243 kts | 243° |
| 2026-04-22 09:07 | 54.83866 | -8.32915 | 3361 ft | 243 kts | 264° |
| 2026-04-22 09:07 | 54.84054 | -8.35833 | 3141 ft | 245 kts | 284° |
| 2026-04-22 09:07 | 54.84635 | -8.38593 | 3011 ft | 240 kts | 289° |
| 2026-04-22 09:07 | 54.85233 | -8.41200 | 2986 ft | 233 kts | 298° |
| 2026-04-22 09:08 | 54.86278 | -8.43257 | 3022 ft | 226 kts | 330° |
| 2026-04-22 09:08 | 54.87695 | -8.44214 | 3006 ft | 215 kts | 0° |
| 2026-04-22 09:08 | 54.89119 | -8.43984 | 2998 ft | 200 kts | 28° |
| 2026-04-22 09:08 | 54.90386 | -8.43172 | 3004 ft | 191 kts | 30° |
| 2026-04-22 09:09 | 54.91623 | -8.42371 | 2879 ft | 190 kts | 30° |
| 2026-04-22 09:09 | 54.92852 | -8.41576 | 2571 ft | 186 kts | 30° |
| 2026-04-22 09:09 | 54.94039 | -8.40819 | 2293 ft | 176 kts | 31° |
| 2026-04-22 09:09 | 54.95162 | -8.40105 | 2024 ft | 169 kts | 31° |
| 2026-04-22 09:10 | 54.96257 | -8.39400 | 1776 ft | 166 kts | 31° |
| 2026-04-22 09:10 | 54.97305 | -8.38727 | 1544 ft | 154 kts | 31° |
| 2026-04-22 09:10 | 54.98279 | -8.38102 | 1304 ft | 143 kts | 29° |
| 2026-04-22 09:10 | 54.99188 | -8.37518 | 1108 ft | 136 kts | 29° |
| 2026-04-22 09:11 | 55.00047 | -8.36961 | 913 ft | 132 kts | 29° |
| 2026-04-22 09:11 | 55.00901 | -8.36407 | 739 ft | 130 kts | 29° |
| 2026-04-22 09:11 | 55.01744 | -8.35854 | 534 ft | 130 kts | 30° |
| 2026-04-22 09:11 | 55.02592 | -8.35283 | 334 ft | 129 kts | 30° |
| 2026-04-22 09:12 | 55.03436 | -8.34735 | 149 ft | 129 kts | 27° |
| 2026-04-22 09:12 | 55.04264 | -8.34202 | 39 ft | 119 kts | 27° |
| 2026-04-22 09:12 | 55.04785 | -8.33863 | 36 ft | 47 kts | 20° |
| 2026-04-22 09:12 | 55.04968 | -8.33743 | 31 ft | 15 kts | 15° |
| 2026-04-22 09:13 | 55.05032 | -8.33730 | 30 ft | 6 kts | 57° |
| 2026-04-22 09:13 | 55.05010 | -8.33719 | 29 ft | 5 kts | 196° |
| 2026-04-22 09:13 | 55.04945 | -8.33760 | 29 ft | 17 kts | 200° |
| 2026-04-22 09:13 | 55.04825 | -8.33835 | 36 ft | 19 kts | 200° |
| 2026-04-22 09:14 | 55.04691 | -8.33920 | 37 ft | 22 kts | 196° |
| 2026-04-22 09:14 | 55.04543 | -8.34018 | 35 ft | 25 kts | 201° |
| 2026-04-22 09:14 | 55.04366 | -8.34133 | 33 ft | 29 kts | 200° |
| 2026-04-22 09:14 | 55.04174 | -8.34257 | 37 ft | 30 kts | 200° |
| 2026-04-22 09:15 | 55.03986 | -8.34378 | 35 ft | 27 kts | 198° |
| 2026-04-22 09:15 | 55.03900 | -8.34413 | 31 ft | 8 kts | 144° |
| 2026-04-22 09:15 | 55.03879 | -8.34316 | 33 ft | 10 kts | 86° |
| 2026-04-22 09:15 | 55.03887 | -8.34224 | 33 ft | 6 kts | 94° |
| 2026-04-22 09:16 | 55.03883 | -8.34200 | 33 ft | 2 kts | 106° |
| 2026-04-22 09:16 | 55.03874 | -8.34182 | 32 ft | 2 kts | 159° |
| 2026-04-22 09:16 | 55.03862 | -8.34186 | 32 ft | 2 kts | 192° |
| 2026-04-22 09:16 | 55.03852 | -8.34192 | 33 ft | 1 kts | 198° |
| 2026-04-22 09:17 | 55.03849 | -8.34194 | 33 ft | 0 kts | 197° |